地図

経路データ

SID SEASON NUMBER BASIN SUBBASIN NAME ISO_TIME NATURE LAT LON WMO_WIND WMO_PRES WMO_AGENCY TRACK_TYPE DIST2LAND LANDFALL IFLAG USA_AGENCY USA_ATCF_ID USA_LAT USA_LON USA_RECORD USA_STATUS USA_WIND USA_PRES USA_SSHS USA_R34_NE USA_R34_SE USA_R34_SW USA_R34_NW USA_R50_NE USA_R50_SE USA_R50_SW USA_R50_NW USA_R64_NE USA_R64_SE USA_R64_SW USA_R64_NW USA_POCI USA_ROCI USA_RMW USA_EYE TOKYO_LAT TOKYO_LON TOKYO_GRADE TOKYO_WIND TOKYO_PRES TOKYO_R50_DIR TOKYO_R50_LONG TOKYO_R50_SHORT TOKYO_R30_DIR TOKYO_R30_LONG TOKYO_R30_SHORT TOKYO_LAND CMA_LAT CMA_LON CMA_CAT CMA_WIND CMA_PRES HKO_LAT HKO_LON HKO_CAT HKO_WIND HKO_PRES NEWDELHI_LAT NEWDELHI_LON NEWDELHI_GRADE NEWDELHI_WIND NEWDELHI_PRES NEWDELHI_CI NEWDELHI_DP NEWDELHI_POCI REUNION_LAT REUNION_LON REUNION_TYPE REUNION_WIND REUNION_PRES REUNION_TNUM REUNION_CI REUNION_RMW REUNION_R34_NE REUNION_R34_SE REUNION_R34_SW REUNION_R34_NW REUNION_R50_NE REUNION_R50_SE REUNION_R50_SW REUNION_R50_NW REUNION_R64_NE REUNION_R64_SE REUNION_R64_SW REUNION_R64_NW BOM_LAT BOM_LON BOM_TYPE BOM_WIND BOM_PRES BOM_TNUM BOM_CI BOM_RMW BOM_R34_NE BOM_R34_SE BOM_R34_SW BOM_R34_NW BOM_R50_NE BOM_R50_SE BOM_R50_SW BOM_R50_NW BOM_R64_NE BOM_R64_SE BOM_R64_SW BOM_R64_NW BOM_ROCI BOM_POCI BOM_EYE BOM_POS_METHOD BOM_PRES_METHOD NADI_LAT NADI_LON NADI_CAT NADI_WIND NADI_PRES WELLINGTON_LAT WELLINGTON_LON WELLINGTON_WIND WELLINGTON_PRES DS824_LAT DS824_LON DS824_STAGE DS824_WIND DS824_PRES TD9636_LAT TD9636_LON TD9636_STAGE TD9636_WIND TD9636_PRES TD9635_LAT TD9635_LON TD9635_WIND TD9635_PRES TD9635_ROCI NEUMANN_LAT NEUMANN_LON NEUMANN_CLASS NEUMANN_WIND NEUMANN_PRES MLC_LAT MLC_LON MLC_CLASS MLC_WIND MLC_PRES USA_GUST BOM_GUST BOM_GUST_PER REUNION_GUST REUNION_GUST_PER USA_SEAHGT USA_SEARAD_NE USA_SEARAD_SE USA_SEARAD_SW USA_SEARAD_NW STORM_SPEED STORM_DIR
2016108S17181 2016 16 SP MM AMOS 2016-04-17 06:00:00 TS -17.0000 -179.400 main 77 77 O_____________ jtwc_sh SH202016 -17.0000 -179.400 TD 25 1002 -1 1004 160 50 11 61
2016108S17181 2016 16 SP MM AMOS 2016-04-17 09:00:00 TS -16.7302 -178.895 main 128 128 P_____________ SH202016 -16.7302 -178.895 TD 25 1002 -1 1004 160 50 11 62
2016108S17181 2016 16 SP MM AMOS 2016-04-17 12:00:00 TS -16.5000 -178.400 main 184 184 O_____________ jtwc_sh SH202016 -16.5000 -178.400 TD 25 1002 -1 1004 160 50 10 67
2016108S17181 2016 16 SP MM AMOS 2016-04-17 15:00:00 TS -16.3349 -177.928 main 235 235 P_____________ SH202016 -16.3349 -177.928 TD 27 1001 -1 1004 160 50 9 71
2016108S17181 2016 16 SP MM AMOS 2016-04-17 18:00:00 TS -16.2000 -177.500 main 277 277 O_____________ jtwc_sh SH202016 -16.2000 -177.500 TD 30 1000 -1 1004 160 50 8 70
2016108S17181 2016 16 SP MM AMOS 2016-04-17 21:00:00 TS -16.0574 -177.120 main 320 320 P_____________ SH202016 -16.0574 -177.120 TD 30 1000 -1 1004 160 50 7 66
2016108S17181 2016 16 SP MM AMOS 2016-04-18 00:00:00 TS -15.9000 -176.800 main 354 354 O_____________ jtwc_sh SH202016 -15.9000 -176.800 TD 30 1000 -1 1004 160 50 7 59
2016108S17181 2016 16 SP MM AMOS 2016-04-18 03:00:00 TS -15.7075 -176.520 main 389 389 P_____________ SH202016 -15.7075 -176.520 TD 30 1000 -1 1004 170 50 6 50
2016108S17181 2016 16 SP MM AMOS 2016-04-18 06:00:00 TS -15.5000 -176.300 main 414 408 O_____________ jtwc_sh SH202016 -15.5000 -176.300 TD 30 1000 -1 1004 180 50 6 43
2016108S17181 2016 16 SP MM AMOS 2016-04-18 09:00:00 TS -15.3075 -176.128 main 408 388 P_____________ SH202016 -15.3075 -176.128 TD 30 1000 -1 1004 180 50 5 36
2016108S17181 2016 16 SP MM AMOS 2016-04-18 12:00:00 TS -15.1000 -176.000 main 388 369 O_____________ jtwc_sh SH202016 -15.1000 -176.000 TD 30 1000 -1 1004 180 50 5 29
2016108S17181 2016 16 SP MM AMOS 2016-04-18 15:00:00 TS -14.8425 -175.862 main 364 346 P_____________ SH202016 -14.8425 -175.862 TD 30 1000 -1 1005 187 50 5 21
2016108S17181 2016 16 SP MM AMOS 2016-04-18 18:00:00 TS -14.6000 -175.800 main 346 342 O_____________ jtwc_sh SH202016 -14.6000 -175.800 TD 30 1000 -1 1006 195 50 4 0
2016108S17181 2016 16 SP MM AMOS 2016-04-18 21:00:00 TS -14.4275 -175.870 main 349 349 P_____________ SH202016 -14.4275 -175.870 TD 30 1000 -1 1006 187 50 4 327
2016108S17181 2016 16 SP MM AMOS 2016-04-19 00:00:00 TS -14.3000 -176.000 main 357 354 O_____________ jtwc_sh SH202016 -14.3000 -176.000 TD 30 1000 -1 1006 180 50 3 320
2016108S17181 2016 16 SP MM AMOS 2016-04-19 03:00:00 TS -14.1999 -176.070 main 364 362 P_____________ SH202016 -14.1999 -176.070 TD 30 1000 -1 1006 190 50 3 316
2016108S17181 2016 16 SP MM AMOS 2016-04-19 06:00:00 TS -14.1000 -176.200 main 373 373 O_____________ jtwc_sh SH202016 -14.1000 -176.200 TD 30 1000 -1 1007 200 50 5 302
2016108S17181 2016 16 SP MM AMOS 2016-04-19 09:00:00 TS -13.9575 -176.463 main 403 402 P_____________ SH202016 -13.9575 -176.463 TD 30 1001 -1 1006 205 47 7 297
2016108S17181 2016 16 SP MM AMOS 2016-04-19 12:00:00 TS -13.8000 -176.800 main 433 426 O_____________ jtwc_sh SH202016 -13.8000 -176.800 TD 30 1002 -1 1006 210 45 7 295
2016108S17181 2016 16 SP MM AMOS 2016-04-19 15:00:00 TS -13.6500 -177.150 main 426 411 P_____________ SH202016 -13.6500 -177.150 TD 30 1001 -1 1006 210 45 7 294
2016108S17181 2016 16 SP MM AMOS 2016-04-19 18:00:00 TS -13.5000 -177.500 main 411 399 O_____________ jtwc_sh SH202016 -13.5000 -177.500 TD 30 1000 -1 1007 210 45 7 295
2016108S17181 2016 16 SP MM AMOS 2016-04-19 21:00:00 TS -13.3425 -177.822 main 408 395 P_____________ SH202016 -13.3425 -177.822 TD 30 1000 -1 1006 185 45 7 297
2016108S17181 2016 16 SP MM AMOS 2016-04-20 00:00:00 TS -13.2000 -178.100 main 398 393 O_____________ jtwc_sh SH202016 -13.2000 -178.100 TD 30 1000 -1 1006 160 45 7 300
2016108S17181 2016 16 SP MM AMOS 2016-04-20 03:00:00 TS -12.9799 -178.460 30 998 nadi main 397 395 P_____________ SH202016 -13.0999 -178.300 TD 32 998 -1 1006 175 45 -12.5000 180.900 -1 30 998 8 296
2016108S17181 2016 16 SP MM AMOS 2016-04-20 06:00:00 TS -12.8667 -178.800 30 998 nadi main 395 391 O_____________ jtwc_sh SH202016 -13.0000 -178.500 TS 35 996 0 1007 190 45 -12.6000 180.600 -1 30 998 7 287
2016108S17181 2016 16 SP MM AMOS 2016-04-20 09:00:00 TS -12.7857 -179.096 35 998 nadi main 395 388 P_____________ SH202016 -12.8500 -178.793 TS 37 994 0 1006 190 42 -12.7000 180.500 1 35 998 6 280
2016108S17181 2016 16 SP MM AMOS 2016-04-20 12:00:00 TS -12.7500 -179.450 35 995 nadi main 397 395 O_____________ jtwc_sh SH202016 -12.7000 -179.100 TS 40 993 0 80 100 100 100 1006 190 40 -12.8000 180.200 1 35 995 6 281
2016108S17181 2016 16 SP MM AMOS 2016-04-20 15:00:00 TS -12.6775 -179.651 35 995 nadi main 394 394 P_____________ SH202016 -12.5550 -179.403 TS 45 989 0 80 100 100 100 1006 197 40 -12.8000 180.100 1 35 995 4 304
2016108S17181 2016 16 SP MM AMOS 2016-04-20 18:00:00 TS -12.5500 -179.750 35 995 nadi main 416 405 O_____________ jtwc_sh SH202016 -12.5000 -179.600 TS 50 985 0 80 100 100 100 1007 205 40 -12.6000 180.100 1 35 995 1 345
2016108S17181 2016 16 SP MM AMOS 2016-04-20 21:00:00 TS -12.5838 -179.664 main 405 395 P______I______ SH202016 -12.6425 -179.610 TS 50 985 0 80 100 100 100 1007 205 40 -12.5251 -179.719 1 35 995 3 122
2016108S17181 2016 16 SP MM AMOS 2016-04-21 00:00:00 TS -12.7000 -179.500 35 995 nadi main 397 388 O_____________ jtwc_sh SH202016 -12.8000 -179.500 TS 50 985 0 80 100 100 100 1007 205 40 -12.6000 180.500 1 35 995 55 3 127
2016108S17181 2016 16 SP MM AMOS 2016-04-21 03:00:00 TS -12.7900 -179.382 40 995 nadi main 388 388 P_____________ SH202016 -12.7800 -179.365 TS 50 985 0 85 90 90 95 1006 192 40 -12.8000 180.600 1 40 995 3 112
2016108S17181 2016 16 SP MM AMOS 2016-04-21 06:00:00 TS -12.8000 -179.250 40 993 nadi main 392 390 O_____________ jtwc_sh SH202016 -12.7000 -179.200 TS 50 985 0 90 80 80 90 1005 180 40 -12.9000 180.700 1 40 993 3 78
2016108S17181 2016 16 SP MM AMOS 2016-04-21 09:00:00 TS -12.7175 -179.036 45 992 nadi main 409 409 P_____________ SH202016 -12.6349 -179.072 TS 52 983 0 90 80 80 90 1005 180 32 -12.8000 181.000 1 45 992 4 66
2016108S17181 2016 16 SP MM AMOS 2016-04-21 12:00:00 TS -12.6500 -178.900 50 989 nadi main 423 416 O_____________ jtwc_sh SH202016 -12.6000 -178.900 TS 55 982 0 90 80 80 90 30 30 30 30 1005 180 25 -12.7000 181.100 2 50 989 4 85
2016108S17181 2016 16 SP MM AMOS 2016-04-21 15:00:00 TS -12.6787 -178.623 50 988 nadi main 423 423 P_____________ SH202016 -12.6574 -178.645 TS 57 980 0 90 80 80 90 30 30 30 30 1005 180 25 -12.7000 181.400 2 50 988 5 95
2016108S17181 2016 16 SP MM AMOS 2016-04-21 18:00:00 TS -12.7000 -178.350 50 987 nadi main 432 432 O_____________ jtwc_sh SH202016 -12.7000 -178.300 TS 60 978 0 90 80 80 90 30 30 30 30 1005 180 25 -12.7000 181.600 2 50 987 8 86
2016108S17181 2016 16 SP MM AMOS 2016-04-21 19:00:00 TS -12.6406 -178.076 55 986 nadi main 457 462 P_____________ SH202016 -12.6813 -178.151 TS 61 976 0 84 78 74 84 30 29 30 29 1005 180 25 -12.6000 182.000 2 55 986 12 81
2016108S17181 2016 16 SP MM AMOS 2016-04-21 21:00:00 TS -12.6076 -177.764 55 987 nadi main 473 473 P_____________ SH202016 -12.6152 -177.827 TS 65 974 1 72 75 62 72 30 27 30 27 1005 180 25 -12.6000 182.300 2 55 987 8 78
2016108S17181 2016 16 SP MM AMOS 2016-04-22 00:00:00 TS -12.5000 -177.400 60 980 nadi main 506 489 O_____________ jtwc_sh SH202016 -12.5000 -177.400 TY 70 970 1 55 70 45 55 30 25 30 25 1005 180 25 -12.5000 182.600 2 60 980 6 77
2016108S17181 2016 16 SP MM AMOS 2016-04-22 03:00:00 TS -12.4766 -177.180 65 975 nadi main 489 468 P_____________ SH202016 -12.4532 -177.260 TY 75 966 1 57 60 47 57 32 27 30 30 1005 185 20 -12.5000 182.900 3 65 975 4 84
2016108S17181 2016 16 SP MM AMOS 2016-04-22 06:00:00 TS -12.4500 -176.950 70 973 nadi main 471 440 O_____________ jtwc_sh SH202016 -12.4000 -177.100 TY 80 963 1 60 50 50 60 35 30 30 35 20 20 20 20 1005 190 15 -12.5000 183.200 3 70 973 5 82
2016108S17181 2016 16 SP MM AMOS 2016-04-22 09:00:00 TS -12.4000 -176.650 75 970 nadi main 430 409 O_____________ jtwc_sh SH202016 -12.3000 -176.700 TY 85 959 2 60 50 50 60 35 30 30 35 20 20 20 20 1005 190 15 -12.5000 183.400 3 75 970 6 85
2016108S17181 2016 16 SP MM AMOS 2016-04-22 12:00:00 TS -12.4000 -176.350 80 965 nadi main 409 368 O_____________ jtwc_sh SH202016 -12.3000 -176.400 TY 90 956 2 60 50 50 60 35 30 30 35 20 20 20 20 1005 190 15 -12.5000 183.700 3 80 965 6 90
2016108S17181 2016 16 SP MM AMOS 2016-04-22 15:00:00 TS -12.3966 -176.014 80 966 nadi main 368 327 P_____________ SH202016 -12.2932 -176.027 TY 90 956 2 60 50 50 60 35 30 30 35 20 20 20 20 1005 190 15 -12.5000 184.000 3 80 966 8 90
2016108S17181 2016 16 SP MM AMOS 2016-04-22 18:00:00 TS -12.4000 -175.550 80 965 nadi main 327 278 O_____________ jtwc_sh SH202016 -12.3000 -175.600 TY 90 956 2 60 50 50 60 35 30 30 35 20 20 20 20 1005 190 15 -12.5000 184.500 3 80 965 9 87
2016108S17181 2016 16 SP MM AMOS 2016-04-22 21:00:00 TS -12.3561 -175.101 80 965 nadi main 278 230 P_____________ SH202016 -12.3122 -175.202 TY 87 957 2 55 45 42 52 35 27 25 32 17 17 17 17 1005 182 12 -12.4000 185.000 3 80 965 9 90
2016108S17181 2016 16 SP MM AMOS 2016-04-23 00:00:00 TS -12.4000 -174.600 80 965 nadi main 230 156 O_____________ jtwc_sh SH202016 -12.4000 -174.700 TY 85 959 2 50 40 35 45 35 25 20 30 15 15 15 15 1006 175 10 -12.4000 185.500 3 80 965 12 102
2016108S17181 2016 16 SP MM AMOS 2016-04-23 03:00:00 TS -12.6062 -173.855 80 968 nadi main 156 89 P_____________ SH202016 -12.6125 -174.010 TY 82 961 1 57 57 42 50 35 32 25 30 17 17 17 17 1006 177 10 -12.6000 186.300 3 80 968 14 108
2016108S17181 2016 16 SP MM AMOS 2016-04-23 06:00:00 TS -12.8500 -173.200 80 965 nadi main 89 44 O_____________ jtwc_sh SH202016 -12.9000 -173.200 TY 80 963 1 65 75 50 55 35 40 30 30 20 20 20 20 1006 180 10 -12.8000 186.800 3 80 965 16 111
2016108S17181 2016 16 SP MM AMOS 2016-04-23 09:00:00 TS -13.1614 -172.353 80 968 nadi main 33 33 P_____________ SH202016 -13.2229 -172.305 TY 67 972 1 67 77 55 57 35 37 30 30 10 10 10 10 1006 185 10 -13.1000 187.600 3 80 968 16 112
2016108S17181 2016 16 SP MM AMOS 2016-04-23 12:00:00 TS -13.4500 -171.650 80 970 nadi main 73 68 O_____________ jtwc_sh SH202016 -13.5000 -171.500 TS 55 982 0 70 80 60 60 35 35 30 30 1006 190 10 -13.4000 188.200 3 80 970 12 111
2016108S17181 2016 16 SP MM AMOS 2016-04-23 15:00:00 TS -13.5723 -171.237 80 967 nadi main 108 108 P_____________ SH202016 -13.6446 -170.975 TS 47 987 0 65 75 60 60 1007 195 10 -13.5000 188.500 3 80 967 8 104
2016108S17181 2016 16 SP MM AMOS 2016-04-23 18:00:00 TS -13.6500 -170.850 80 973 nadi main 140 140 O_____________ jtwc_sh SH202016 -13.7000 -170.600 TS 40 993 0 60 70 60 60 1008 200 10 -13.6000 188.900 3 80 973 7 101
2016108S17181 2016 16 SP MM AMOS 2016-04-23 21:00:00 TS -13.7150 -170.514 75 971 nadi main 183 183 P_____________ SH202016 -13.7299 -170.227 TS 37 994 0 47 55 50 47 1008 180 10 -13.7000 189.200 3 75 971 6 100
2016108S17181 2016 16 SP MM AMOS 2016-04-24 00:00:00 TS -13.7571 -170.243 70 978 nadi main 216 216 O_____________ jtwc_sh SH202016 -13.7000 -169.900 TS 35 996 0 35 40 40 35 1008 160 10 -13.8000 189.500 3 70 978 4 102
2016108S17181 2016 16 SP MM AMOS 2016-04-24 03:00:00 TS -13.8050 -170.065 60 981 nadi main 226 226 P_____________ SH202016 -13.6151 -169.595 TS 32 998 -1 1008 167 12 -13.9000 189.700 2 60 981 4 111
2016108S17181 2016 16 SP MM AMOS 2016-04-24 06:00:00 TS -13.9000 -169.860 50 985 nadi main 248 248 O_____________ jtwc_sh SH202016 -13.5000 -169.300 TD 30 1000 -1 1008 175 15 -14.0000 190.000 2 50 985 5 130
2016108S17181 2016 16 SP MM AMOS 2016-04-24 09:00:00 NR -14.1000 -169.700 45 990 nadi main 272 272 ______________ SH202016 TD -1 -14.1000 190.300 1 45 990 7 107
2016108S17181 2016 16 SP MM AMOS 2016-04-24 12:00:00 NR -14.1000 -169.200 40 995 nadi main 325 325 ______________ -14.1000 190.800 1 40 995 12 95
2016108S17181 2016 16 SP MM AMOS 2016-04-24 15:00:00 NR -14.2000 -168.500 35 1003 nadi main 401 401 ______________ -14.2000 191.500 1 35 1003 19 99
2016108S17181 2016 16 SP MM AMOS 2016-04-24 18:00:00 NR -14.4000 -167.300 35 995 nadi main 532 ______________ -14.4000 192.700 1 35 995 24 100

デジタル台風データ・検索

IBTrACS Databaseについて

本データベースは、米国NOAAが公開する1842年以降の世界の熱帯低気圧のベストトラックデータアーカイブInternational Best Track Archive for Climate Stewardship (IBTrACS)を、ウェブで閲覧しやすい形式に変換したものです。

最終更新日:2021-10-08